createdAt,value
2019-01-25T00:04:01.461Z,100534.25
2019-01-25T00:06:50.294Z,100534.25
2019-01-25T00:09:39.126Z,100541.56
2019-01-25T00:12:27.991Z,100543.73
2019-01-25T00:15:16.846Z,100538.58
2019-01-25T00:18:06.024Z,100542.91
2019-01-25T00:20:55.930Z,100533.43
2019-01-25T00:23:45.501Z,100541.03
2019-01-25T00:26:34.345Z,100528.28
2019-01-25T00:29:23.188Z,100527.20
2019-01-25T00:32:12.066Z,100528.28
2019-01-25T00:35:00.921Z,100529.64
2019-01-25T00:37:49.731Z,100523.41
2019-01-25T00:40:38.596Z,100517.17
2019-01-25T00:46:36.812Z,100535.09
2019-01-25T00:49:26.000Z,100503.88
2019-01-25T00:52:14.831Z,100539.42
2019-01-25T00:58:32.143Z,100522.36
2019-01-25T01:01:21.031Z,100520.70
2019-01-25T01:04:09.943Z,100528.56
2019-01-25T01:06:52.134Z,100521.24
2019-01-25T01:09:40.955Z,100518.53
2019-01-25T01:12:29.856Z,100524.77
2019-01-25T01:15:39.575Z,100518.26
2019-01-25T01:18:28.479Z,100438.80
2019-01-25T01:21:17.363Z,100512.86
2019-01-25T01:24:06.356Z,100516.09
2019-01-25T01:26:55.233Z,100522.87
2019-01-25T01:29:44.135Z,100527.22
2019-01-25T01:32:33.029Z,100530.45
2019-01-25T01:35:21.925Z,100536.15
2019-01-25T01:38:10.847Z,100538.61
2019-01-25T01:40:59.730Z,100537.27
2019-01-25T01:43:48.576Z,100456.69
2019-01-25T01:46:37.486Z,100539.17
2019-01-25T01:49:26.365Z,100501.70
2019-01-25T01:52:15.216Z,100542.97
2019-01-25T01:58:00.114Z,100550.03
2019-01-25T02:00:49.041Z,100544.32
2019-01-25T02:03:37.889Z,100542.97
2019-01-25T02:06:19.805Z,100547.86
2019-01-25T02:09:08.801Z,100549.48
2019-01-25T02:15:33.372Z,100533.76
2019-01-25T02:18:22.211Z,100555.45
2019-01-25T02:21:11.100Z,100557.61
2019-01-25T02:24:00.024Z,100550.56
2019-01-25T02:26:48.891Z,100551.92
2019-01-25T02:29:37.740Z,100551.65
2019-01-25T02:32:26.741Z,100555.44
2019-01-25T02:35:15.748Z,100545.68
2019-01-25T02:38:04.651Z,100544.58
2019-01-25T02:40:53.487Z,100550.00
2019-01-25T02:43:42.315Z,100544.33
2019-01-25T02:46:31.176Z,100548.94
2019-01-25T02:49:19.991Z,100555.72
2019-01-25T02:52:08.839Z,100461.00
2019-01-25T02:54:57.722Z,100539.18
2019-01-25T02:57:46.821Z,100545.14
2019-01-25T03:00:35.649Z,100538.91
2019-01-25T03:03:24.482Z,100535.64
2019-01-25T03:06:06.591Z,100536.47
2019-01-25T03:08:55.401Z,100536.20
2019-01-25T03:11:44.231Z,100537.56
2019-01-25T03:14:33.054Z,100536.20
2019-01-25T03:17:21.881Z,100536.47
2019-01-25T03:20:31.611Z,100536.47
2019-01-25T03:23:20.468Z,100542.70
2019-01-25T03:26:09.380Z,100541.36
2019-01-25T03:28:58.194Z,100541.36
2019-01-25T03:31:47.082Z,100448.84
2019-01-25T03:34:35.947Z,100538.91
2019-01-25T03:37:24.763Z,100539.73
2019-01-25T03:40:34.529Z,100471.37
2019-01-25T03:43:23.425Z,100551.14
2019-01-25T03:46:12.404Z,100548.14
2019-01-25T03:49:01.243Z,100544.62
2019-01-25T03:51:50.049Z,100544.36
2019-01-25T03:54:39.005Z,100542.45
2019-01-25T03:57:27.866Z,100543.80
2019-01-25T04:00:37.689Z,100538.11
2019-01-25T04:03:26.519Z,100546.25
2019-01-25T04:06:15.366Z,100543.53
2019-01-25T04:08:57.052Z,100545.97
2019-01-25T04:11:46.008Z,100475.97
2019-01-25T04:14:34.920Z,100558.18
2019-01-25T04:17:23.729Z,100557.09
2019-01-25T04:20:33.485Z,100557.09
2019-01-25T04:23:22.320Z,100558.72
2019-01-25T04:26:11.139Z,100554.66
2019-01-25T04:28:59.991Z,100564.98
2019-01-25T04:31:48.838Z,100468.92
2019-01-25T04:34:37.681Z,100556.55
2019-01-25T04:37:26.509Z,100558.18
2019-01-25T04:40:36.282Z,100540.27
2019-01-25T04:43:18.041Z,100561.16
2019-01-25T04:46:07.001Z,100558.45
2019-01-25T04:48:55.814Z,100548.69
2019-01-25T04:51:44.650Z,100555.20
2019-01-25T04:54:33.520Z,100560.89
2019-01-25T04:57:22.350Z,100545.16
2019-01-25T05:00:32.103Z,100554.94
2019-01-25T05:03:14.379Z,100515.33
2019-01-25T05:06:03.293Z,100556.30
2019-01-25T05:08:52.122Z,100557.36
2019-01-25T05:11:33.779Z,100556.56
2019-01-25T05:14:22.614Z,100554.66
2019-01-25T05:17:11.459Z,100551.67
2019-01-25T05:20:00.393Z,100552.77
2019-01-25T05:23:10.143Z,100556.28
2019-01-25T05:25:58.934Z,100553.84
2019-01-25T05:28:47.828Z,100554.92
2019-01-25T05:31:36.700Z,100552.77
2019-01-25T05:34:25.547Z,100554.66
2019-01-25T05:37:14.426Z,100558.72
2019-01-25T05:40:03.511Z,100564.14
2019-01-25T05:42:52.472Z,100564.69
2019-01-25T05:46:00.658Z,100565.23
2019-01-25T05:48:49.462Z,100566.06
2019-01-25T05:51:38.318Z,100516.41
2019-01-25T05:54:27.128Z,100570.39
2019-01-25T05:57:15.969Z,100572.28
2019-01-25T06:00:44.730Z,100575.81
2019-01-25T06:03:33.572Z,100570.41
2019-01-25T06:06:14.893Z,100589.65
2019-01-25T06:12:18.993Z,100595.34
2019-01-25T06:15:28.710Z,100599.42
2019-01-25T06:18:17.552Z,100596.72
2019-01-25T06:21:06.472Z,100599.45
2019-01-25T06:23:55.526Z,100590.46
2019-01-25T06:27:05.246Z,100607.05
2019-01-25T06:29:54.184Z,100597.26
2019-01-25T06:32:43.075Z,100597.00
2019-01-25T06:35:31.913Z,100601.34
2019-01-25T06:38:01.408Z,100608.67
2019-01-25T06:40:50.251Z,100598.63
2019-01-25T06:43:39.056Z,100551.94
2019-01-25T06:46:27.974Z,100611.12
2019-01-25T06:49:16.826Z,100562.81
2019-01-25T06:52:06.002Z,100614.09
2019-01-25T06:54:56.536Z,100573.11
2019-01-25T07:01:03.803Z,100617.07
2019-01-25T07:03:52.676Z,100614.38
2019-01-25T07:06:41.506Z,100583.14
2019-01-25T07:09:30.432Z,100615.19
2019-01-25T07:12:19.276Z,100615.44
2019-01-25T07:15:29.008Z,100611.09
2019-01-25T07:18:17.863Z,100610.30
2019-01-25T07:21:06.742Z,100515.86
2019-01-25T07:23:55.658Z,100607.57
2019-01-25T07:26:44.465Z,100607.83
2019-01-25T07:29:33.382Z,100614.61
2019-01-25T07:32:22.235Z,100618.41
2019-01-25T07:35:11.552Z,100627.09
2019-01-25T07:38:00.407Z,100624.95
2019-01-25T07:40:49.348Z,100630.37
2019-01-25T07:43:38.224Z,100629.81
2019-01-25T07:46:27.009Z,100629.30
2019-01-25T07:49:16.033Z,100585.03
2019-01-25T07:52:05.313Z,100635.81
2019-01-25T07:54:54.209Z,100625.23
2019-01-25T08:01:11.528Z,100622.50
2019-01-25T08:04:00.472Z,100621.70
2019-01-25T08:06:49.481Z,100624.41
2019-01-25T08:09:38.356Z,100625.21
2019-01-25T08:12:27.198Z,100634.18
2019-01-25T08:15:35.336Z,100634.18
2019-01-25T08:18:24.178Z,100632.27
2019-01-25T08:20:53.644Z,100641.78
2019-01-25T08:23:42.480Z,100637.98
2019-01-25T08:26:31.390Z,100632.81
2019-01-25T08:29:27.708Z,100635.27
2019-01-25T08:32:10.933Z,100636.35
2019-01-25T08:34:40.497Z,100641.23
2019-01-25T08:37:29.350Z,100642.05
2019-01-25T08:40:18.742Z,100641.80
2019-01-25T08:43:08.925Z,100646.66
2019-01-25T08:45:58.345Z,100649.12
2019-01-25T08:48:47.224Z,100615.44
2019-01-25T08:51:36.595Z,100646.41
2019-01-25T08:54:25.749Z,100658.88
2019-01-25T08:57:08.541Z,100660.23
2019-01-25T08:59:57.516Z,100652.08
2019-01-25T09:02:46.384Z,100648.03
2019-01-25T09:05:35.241Z,100651.28
2019-01-25T09:08:24.170Z,100643.38
2019-01-25T09:11:13.096Z,100650.18
2019-01-25T09:13:42.558Z,100653.41
2019-01-25T09:16:31.387Z,100652.60
2019-01-25T09:19:00.928Z,100653.69
2019-01-25T09:21:49.794Z,100653.14
2019-01-25T09:24:38.672Z,100650.14
2019-01-25T09:27:27.584Z,100657.72
2019-01-25T09:30:38.154Z,100655.81
2019-01-25T09:33:27.027Z,100655.25
2019-01-25T09:35:56.555Z,100658.25
2019-01-25T09:38:26.144Z,100647.38
2019-01-25T09:40:55.803Z,100646.56
2019-01-25T09:43:25.278Z,100648.72
2019-01-25T09:45:54.869Z,100651.44
2019-01-25T09:48:24.358Z,100651.70
2019-01-25T09:51:13.243Z,100658.21
2019-01-25T09:54:02.058Z,100593.12
2019-01-25T09:56:50.894Z,100665.00
2019-01-25T09:59:39.711Z,100674.22
2019-01-25T10:02:28.563Z,100679.91
2019-01-25T10:05:17.483Z,100678.55
2019-01-25T10:08:06.404Z,100657.13
2019-01-25T10:10:48.081Z,100679.06
2019-01-25T10:13:36.929Z,100675.80
2019-01-25T10:16:25.770Z,100604.69
2019-01-25T10:19:14.626Z,100675.19
2019-01-25T10:22:03.492Z,100672.44
2019-01-25T10:24:52.334Z,100661.29
2019-01-25T10:27:41.290Z,100659.34
2019-01-25T10:30:30.349Z,100650.88
2019-01-25T10:33:19.136Z,100644.91
2019-01-25T10:36:08.065Z,100644.34
2019-01-25T10:38:56.885Z,100642.69
2019-01-25T10:41:26.375Z,100646.20
2019-01-25T10:44:15.191Z,100643.45
2019-01-25T10:47:04.290Z,100640.16
2019-01-25T10:49:53.103Z,100634.41
2019-01-25T10:52:42.038Z,100625.95
2019-01-25T10:55:31.004Z,100622.92
2019-01-25T10:58:19.562Z,100628.33
2019-01-25T11:01:08.385Z,100621.52
2019-01-25T11:03:57.294Z,100625.83
2019-01-25T11:06:46.165Z,100587.88
2019-01-25T11:09:37.999Z,100624.73
2019-01-25T11:12:16.205Z,100627.44
2019-01-25T11:15:25.980Z,100618.44
2019-01-25T11:18:14.784Z,100617.04
2019-01-25T11:21:03.643Z,100609.39
2019-01-25T11:23:52.494Z,100604.69
2019-01-25T11:26:41.367Z,100604.38
2019-01-25T11:29:30.213Z,100542.09
2019-01-25T11:32:19.158Z,100597.25
2019-01-25T11:35:08.157Z,100603.48
2019-01-25T11:37:57.119Z,100594.98
2019-01-25T11:40:46.088Z,100588.40
2019-01-25T11:43:34.944Z,100507.96
2019-01-25T11:46:23.834Z,100594.58
2019-01-25T11:48:53.338Z,100582.27
2019-01-25T11:51:42.199Z,100577.06
2019-01-25T11:54:38.052Z,100586.30
2019-01-25T11:57:26.908Z,100581.66
2019-01-25T12:00:36.110Z,100566.66
2019-01-25T12:03:25.037Z,100576.03
2019-01-25T12:06:13.852Z,100512.83
2019-01-25T12:09:02.960Z,100565.97
2019-01-25T12:11:51.878Z,100549.98
2019-01-25T12:14:40.720Z,100529.72
2019-01-25T12:17:29.695Z,100545.75
2019-01-25T12:20:39.492Z,100554.04
2019-01-25T12:23:28.309Z,100539.36
2019-01-25T12:26:17.243Z,100559.52
2019-01-25T12:29:06.205Z,100556.70
2019-01-25T12:31:55.051Z,100470.38
2019-01-25T12:34:43.859Z,100551.63
2019-01-25T12:37:34.421Z,100552.08
2019-01-25T12:40:23.268Z,100559.08
2019-01-25T12:43:12.150Z,100565.80
2019-01-25T12:45:41.729Z,100565.96
2019-01-25T12:48:30.533Z,100565.62
2019-01-25T12:51:19.957Z,100569.66
2019-01-25T12:54:08.816Z,100564.16
2019-01-25T12:56:57.653Z,100555.05
2019-01-25T12:59:46.464Z,100553.33
2019-01-25T13:02:35.525Z,100538.23
2019-01-25T13:05:24.594Z,100521.23
2019-01-25T13:08:13.460Z,100515.92
2019-01-25T13:10:54.718Z,100508.98
2019-01-25T13:13:43.572Z,100520.87
2019-01-25T13:16:32.453Z,100522.70
2019-01-25T13:19:21.353Z,100523.97
2019-01-25T13:22:10.244Z,100527.21
2019-01-25T13:24:59.105Z,100531.53
2019-01-25T13:27:48.085Z,100525.70
2019-01-25T13:30:37.006Z,100508.97
2019-01-25T13:33:25.887Z,100499.91
2019-01-25T13:36:14.917Z,100499.91
2019-01-25T13:42:18.644Z,100509.98
2019-01-25T13:45:28.396Z,100489.43
2019-01-25T13:48:17.283Z,100448.38
2019-01-25T13:51:06.189Z,100507.75
2019-01-25T13:53:55.018Z,100512.72
2019-01-25T13:56:43.865Z,100505.63
2019-01-25T13:59:32.810Z,100497.42
2019-01-25T14:02:21.672Z,100488.72
2019-01-25T14:05:10.614Z,100495.05
2019-01-25T14:07:52.453Z,100494.29
2019-01-25T14:10:41.355Z,100488.89
2019-01-25T14:13:34.183Z,100487.81
2019-01-25T14:16:20.824Z,100494.14
2019-01-25T14:19:09.667Z,100437.86
2019-01-25T14:21:58.484Z,100473.45
2019-01-25T14:24:47.352Z,100464.42
2019-01-25T14:27:36.204Z,100471.01
2019-01-25T14:30:45.950Z,100466.36
2019-01-25T14:33:34.767Z,100460.89
2019-01-25T14:36:23.664Z,100443.38
2019-01-25T14:39:12.509Z,100442.80
2019-01-25T14:42:01.366Z,100420.78
2019-01-25T14:44:50.223Z,100426.64
2019-01-25T14:47:39.110Z,100424.73
2019-01-25T14:50:48.873Z,100419.81
2019-01-25T14:53:37.711Z,100414.09
2019-01-25T14:56:26.605Z,100420.42
2019-01-25T14:59:08.583Z,100415.81
2019-01-25T15:01:57.434Z,100410.96
2019-01-25T15:04:46.281Z,100406.97
2019-01-25T15:07:35.202Z,100405.39
2019-01-25T15:10:44.930Z,100406.33
2019-01-25T15:13:33.835Z,100408.55
2019-01-25T15:16:22.738Z,100406.43
2019-01-25T15:19:11.637Z,100407.05
2019-01-25T15:22:00.555Z,100416.36
2019-01-25T15:24:49.493Z,100412.00
2019-01-25T15:27:38.412Z,100417.19
2019-01-25T15:30:48.190Z,100414.27
2019-01-25T15:33:37.066Z,100433.94
2019-01-25T15:36:25.861Z,100440.52
2019-01-25T15:39:08.023Z,100436.99
2019-01-25T15:41:56.944Z,100441.63
2019-01-25T15:44:45.856Z,100441.63
2019-01-25T15:47:34.753Z,100362.17
2019-01-25T15:50:42.908Z,100423.94
2019-01-25T15:53:31.762Z,100417.97
2019-01-25T15:56:20.610Z,100406.78
2019-01-25T15:59:09.456Z,100406.82
2019-01-25T16:01:58.394Z,100398.37
2019-01-25T16:04:47.240Z,100397.61
2019-01-25T16:07:36.052Z,100403.94
2019-01-25T16:10:19.076Z,100409.47
2019-01-25T16:13:07.962Z,100419.31
2019-01-25T16:15:56.878Z,100413.59
2019-01-25T16:18:45.348Z,100411.44
2019-01-25T16:21:34.308Z,100405.41
2019-01-25T16:24:44.055Z,100404.03
2019-01-25T16:27:32.872Z,100402.92
2019-01-25T16:30:41.108Z,100404.29
2019-01-25T16:33:29.962Z,100405.41
2019-01-25T16:36:18.829Z,100409.00
2019-01-25T16:38:48.435Z,100418.30
2019-01-25T16:41:37.285Z,100411.51
2019-01-25T16:44:26.201Z,100405.79
2019-01-25T16:47:15.025Z,100405.79
2019-01-25T16:53:18.949Z,100406.87
2019-01-25T16:55:48.478Z,100344.44
2019-01-25T16:58:37.314Z,100390.77
2019-01-25T17:01:26.168Z,100389.47
2019-01-25T17:04:15.003Z,100383.50
2019-01-25T17:07:03.853Z,100381.62
2019-01-25T17:09:52.728Z,100348.43
2019-01-25T17:12:34.858Z,100378.68
2019-01-25T17:15:23.867Z,100380.11
2019-01-25T17:18:12.776Z,100379.57
2019-01-25T17:21:01.665Z,100353.39
2019-01-25T17:23:50.593Z,100368.75
2019-01-25T17:26:39.567Z,100355.52
2019-01-25T17:29:28.422Z,100360.97
2019-01-25T17:32:17.345Z,100365.73
2019-01-25T17:34:46.912Z,100372.66
2019-01-25T17:37:35.788Z,100362.63
2019-01-25T17:40:46.822Z,100364.34
2019-01-25T17:43:34.680Z,100361.70
2019-01-25T17:46:23.539Z,100360.94
2019-01-25T17:49:12.354Z,100363.70
2019-01-25T17:52:01.232Z,100347.41
2019-01-25T17:54:50.236Z,100347.48
2019-01-25T17:57:39.141Z,100334.17
2019-01-25T18:03:44.819Z,100337.03
2019-01-25T18:06:33.728Z,100334.36
2019-01-25T18:09:22.618Z,100322.39
2019-01-25T18:12:04.291Z,100329.30
2019-01-25T18:14:53.205Z,100325.55
2019-01-25T18:17:42.142Z,100321.80
2019-01-25T18:20:31.031Z,100322.66
2019-01-25T18:23:20.027Z,100316.18
2019-01-25T18:26:08.939Z,100321.70
2019-01-25T18:28:57.847Z,100323.09
2019-01-25T18:31:46.654Z,100258.35
2019-01-25T18:34:35.631Z,100330.78
2019-01-25T18:37:24.513Z,100251.80
2019-01-25T18:40:13.511Z,100309.56
2019-01-25T18:43:02.413Z,100222.92
2019-01-25T18:45:51.301Z,100302.23
2019-01-25T18:48:40.153Z,100305.81
2019-01-25T18:51:29.038Z,100297.95
2019-01-25T18:54:17.838Z,100300.16
2019-01-25T18:57:06.437Z,100303.73
2019-01-25T18:59:55.314Z,100308.94
2019-01-25T19:02:24.835Z,100286.23
2019-01-25T19:05:13.868Z,100309.73
2019-01-25T19:08:02.791Z,100313.28
2019-01-25T19:10:51.760Z,100274.23
2019-01-25T19:13:33.534Z,100294.45
2019-01-25T19:16:22.482Z,100288.17
2019-01-25T19:19:11.461Z,100282.72
2019-01-25T19:22:00.234Z,100273.75
2019-01-25T19:24:49.168Z,100264.47
2019-01-25T19:27:38.001Z,100265.00
2019-01-25T19:30:47.783Z,100272.13
2019-01-25T19:33:36.720Z,100187.13
2019-01-25T19:36:25.589Z,100256.63
2019-01-25T19:39:14.493Z,100257.23
2019-01-25T19:42:03.439Z,100252.56
2019-01-25T19:44:52.334Z,100246.07
2019-01-25T19:47:41.266Z,100251.52
2019-01-25T19:50:30.195Z,100248.03
2019-01-25T19:53:19.152Z,100236.61
2019-01-25T19:56:08.135Z,100175.78
2019-01-25T19:58:57.095Z,100241.02
2019-01-25T20:01:45.905Z,100247.57
2019-01-25T20:04:34.752Z,100250.55
2019-01-25T20:07:23.660Z,100247.55
2019-01-25T20:10:13.019Z,100246.69
2019-01-25T20:12:54.729Z,100248.03
2019-01-25T20:15:43.750Z,100242.52
2019-01-25T20:18:32.596Z,100241.13
2019-01-25T20:21:21.428Z,100240.53
2019-01-25T20:24:10.351Z,100236.44
2019-01-25T20:26:59.154Z,100236.95
2019-01-25T20:29:48.096Z,100233.37
2019-01-25T20:32:36.902Z,100210.41
2019-01-25T20:35:46.680Z,100236.55
2019-01-25T20:38:35.576Z,100232.17
2019-01-25T20:41:24.470Z,100227.48
2019-01-25T20:44:13.408Z,100229.61
2019-01-25T20:47:02.318Z,100232.05
2019-01-25T20:49:51.143Z,100227.65
2019-01-25T20:52:40.052Z,100227.65
2019-01-25T20:55:29.061Z,100228.16
2019-01-25T20:58:17.938Z,100218.58
2019-01-25T21:01:06.839Z,100214.17
2019-01-25T21:03:55.789Z,100211.95
2019-01-25T21:06:44.667Z,100216.30
2019-01-25T21:09:33.559Z,100213.57
2019-01-25T21:12:22.495Z,100216.61
2019-01-25T21:15:05.414Z,100213.38
2019-01-25T21:17:54.593Z,100223.19
2019-01-25T21:21:04.388Z,100213.31
2019-01-25T21:23:53.345Z,100209.73
2019-01-25T21:26:42.195Z,100205.55
2019-01-25T21:29:31.147Z,100203.08
2019-01-25T21:32:20.008Z,100128.36
2019-01-25T21:35:29.757Z,100191.02
2019-01-25T21:38:18.642Z,100197.52
2019-01-25T21:41:07.564Z,100190.16
2019-01-25T21:43:56.382Z,100182.77
2019-01-25T21:46:45.297Z,100183.84
2019-01-25T21:49:34.126Z,100192.00
2019-01-25T21:52:23.052Z,100187.05
2019-01-25T21:55:32.807Z,100176.39
2019-01-25T21:58:21.648Z,100186.19
2019-01-25T22:01:10.715Z,100178.52
2019-01-25T22:03:59.555Z,100183.11
2019-01-25T22:06:48.469Z,100178.44
2019-01-25T22:09:37.319Z,100185.23
2019-01-25T22:12:26.242Z,100177.55
2019-01-25T22:15:08.915Z,100178.30
2019-01-25T22:17:57.819Z,100106.56
2019-01-25T22:20:46.622Z,100171.38
2019-01-25T22:23:35.549Z,100168.90
2019-01-25T22:26:24.352Z,100162.33
2019-01-25T22:29:13.337Z,100165.06
2019-01-25T22:32:02.145Z,100168.83
2019-01-25T22:34:51.070Z,100163.38
2019-01-25T22:37:39.944Z,100160.89
2019-01-25T22:43:44.837Z,100155.40
2019-01-25T22:46:33.717Z,100154.78
2019-01-25T22:49:22.643Z,100161.61
2019-01-25T22:52:11.513Z,100146.82
2019-01-25T22:55:00.424Z,100141.04
2019-01-25T22:57:49.411Z,100160.95
2019-01-25T23:04:29.450Z,100157.91
2019-01-25T23:07:18.327Z,100151.58
2019-01-25T23:10:28.089Z,100146.63
2019-01-25T23:13:09.842Z,100155.56
2019-01-25T23:15:49.739Z,100154.70
2019-01-25T23:18:38.597Z,100142.92
2019-01-25T23:21:27.502Z,100147.27
2019-01-25T23:24:16.321Z,100143.67
2019-01-25T23:27:05.232Z,100141.19
2019-01-25T23:29:54.126Z,100108.48
2019-01-25T23:32:43.001Z,100066.19
2019-01-25T23:35:31.927Z,100137.55
2019-01-25T23:38:20.786Z,100130.19
2019-01-25T23:40:50.278Z,100138.87
2019-01-25T23:43:39.148Z,100136.64
2019-01-25T23:46:28.081Z,100145.34
2019-01-25T23:49:16.918Z,100148.56
2019-01-25T23:52:05.845Z,100149.09
2019-01-25T23:54:54.734Z,100146.36
2019-01-25T23:57:43.693Z,100142.77
